Punkin Center, Colorado
Current Conditions -  °F | °C
As of 2:53 PM on Friday 31 Oct 2014 (Local Time) from KLHX Reporting Station
Clear Clear  
Wind Chill: 66°   Ceiling: Unl
Heat Index: 66°   Visibility: 10mi
Dew Point: 30°   Wind: 18mph
Humidity: 26%   Direction: 160°SSE
Pressure: 30.18"   Gusts: 35mph
Location:  38.363°N, 103.799°W
Report Text: KLHX 312053Z AUTO 16016G30KT 10SM CLR 19/M01 A3018 RMK AO2 PK WND 12030/2045 SLP197 T01891011 56047
Loading
Personal Weather Stations






























Interactive Weather Map
Tropical Storm Tracking
New forecast layout! Learn more

10-Day Weather Forecast

Advertisements
Track Severe Weather on mobile